PWSweather.com
Personal Weather Stations
Station Observations
KGRPEEBLES
PeeblesGB EH45 9LX

PeeblesGB EH45 9LX

Lat: 55.64096, Lon: -3.170893

Elevation: 517

Station Type: Watson W-8681

Latest ConditionsUpdated 1:45:02 PM GMT Sunday, Jun 25, 2017
Currently Today's Max Today's Min Today's Average
Temperature 65.5°F18.6°C 66.9°F19.4°C 49.8°F9.9°C 54.6°F12.6°C
Dew Point 49.4°F9.7°C 50.9°F10.5°C 44.7°F7.1°C 46.9°F8.3°C
Winds 6.0 mph W9.7 kmh W 8.7 mph SSW14.0 kmh SSW - 4.1 mph 6.6 kmh
Wind Gusts 12.1 mph19.5 kmh 12.1 mph19.5 kmh - -
Humidity 56% 86% 53% 76%
Pressure 29.68 in1005.1 mb 29.68 in1005.1 mb 29.62 in1003.0 mb -
Hour Temp Dew Point Humidity Winds Wind Gusts Pressure Precip Precip Rate Daily Precip Total
01:45 PM 65.5°F18.6°C 49.4°F9.7°C 56% 6.0 mph W9.7 kmh W 12.1 mph19.5 kmh 29.68 in1005.1 mb 0.00 in0.0 mm 0.00 in0.0 mm 0.00 in0.0 mm
01:30 PM 64.4°F18.0°C 49.3°F9.6°C 58% 5.1 mph SSW8.2 kmh SSW 7.6 mph12.2 kmh 29.68 in1005.1 mb 0.00 in0.0 mm 0.00 in0.0 mm 0.00 in0.0 mm
01:15 PM 66.6°F19.2°C 50.9°F10.5°C 57% 6.0 mph W9.7 kmh W 9.2 mph14.8 kmh 29.67 in1004.7 mb 0.00 in0.0 mm 0.00 in0.0 mm 0.00 in0.0 mm
01:00 PM 64.2°F17.9°C 49.6°F9.8°C 59% 5.5 mph SW8.9 kmh SW 12.1 mph19.5 kmh 29.67 in1004.7 mb 0.00 in0.0 mm 0.00 in0.0 mm 0.00 in0.0 mm
12:45 PM 64.0°F17.8°C 49.4°F9.7°C 59% 4.9 mph WNW7.9 kmh WNW 6.0 mph9.7 kmh 29.67 in1004.7 mb 0.00 in0.0 mm 0.00 in0.0 mm 0.00 in0.0 mm
12:30 PM 65.1°F18.4°C 50.0°F10.0°C 58% 5.1 mph WSW8.2 kmh WSW 8.3 mph13.4 kmh 29.67 in1004.7 mb 0.00 in0.0 mm 0.00 in0.0 mm 0.00 in0.0 mm
12:15 PM 63.5°F17.5°C 48.5°F9.2°C 58% 5.0 mph WNW8.0 kmh WNW 8.3 mph13.4 kmh 29.67 in1004.7 mb 0.00 in0.0 mm 0.00 in0.0 mm 0.00 in0.0 mm
12:00 PM 63.3°F17.4°C 48.8°F9.3°C 59% 4.4 mph S7.1 kmh S 6.9 mph11.1 kmh 29.67 in1004.7 mb 0.00 in0.0 mm 0.00 in0.0 mm 0.00 in0.0 mm
11:45 AM 64.9°F18.3°C 48.4°F9.1°C 55% 4.5 mph SW7.2 kmh SW 6.9 mph11.1 kmh 29.67 in1004.7 mb 0.00 in0.0 mm 0.00 in0.0 mm 0.00 in0.0 mm
11:30 AM 66.0°F18.9°C 48.4°F9.1°C 53% 5.5 mph SW8.9 kmh SW 12.1 mph19.5 kmh 29.66 in1004.4 mb 0.00 in0.0 mm 0.00 in0.0 mm 0.00 in0.0 mm
11:15 AM 66.9°F19.4°C 50.7°F10.4°C 56% 6.1 mph WSW9.8 kmh WSW 8.3 mph13.4 kmh 29.67 in1004.7 mb 0.00 in0.0 mm 0.00 in0.0 mm 0.00 in0.0 mm
11:00 AM 64.9°F18.3°C 48.9°F9.4°C 56% 4.1 mph S6.6 kmh S 6.0 mph9.7 kmh 29.67 in1004.7 mb 0.00 in0.0 mm 0.00 in0.0 mm 0.00 in0.0 mm
10:45 AM 63.7°F17.6°C 50.4°F10.2°C 62% 5.7 mph WSW9.2 kmh WSW 10.7 mph17.2 kmh 29.67 in1004.7 mb 0.00 in0.0 mm 0.00 in0.0 mm 0.00 in0.0 mm
10:30 AM 63.3°F17.4°C 49.2°F9.6°C 60% 6.3 mph S10.1 kmh S 10.7 mph17.2 kmh 29.67 in1004.7 mb 0.00 in0.0 mm 0.00 in0.0 mm 0.00 in0.0 mm
10:15 AM 64.0°F17.8°C 48.5°F9.2°C 57% 6.7 mph WSW10.8 kmh WSW 9.8 mph15.8 kmh 29.66 in1004.4 mb 0.00 in0.0 mm 0.00 in0.0 mm 0.00 in0.0 mm
10:00 AM 62.8°F17.1°C 50.4°F10.2°C 64% 6.1 mph SW9.8 kmh SW 9.8 mph15.8 kmh 29.66 in1004.4 mb 0.00 in0.0 mm 0.00 in0.0 mm 0.00 in0.0 mm
09:45 AM 58.5°F14.7°C 49.5°F9.7°C 72% 4.0 mph SW6.4 kmh SW 9.2 mph14.8 kmh 29.66 in1004.4 mb 0.00 in0.0 mm 0.00 in0.0 mm 0.00 in0.0 mm
09:30 AM 58.5°F14.7°C 49.1°F9.5°C 71% 5.4 mph WSW8.7 kmh WSW 8.3 mph13.4 kmh 29.66 in1004.4 mb 0.00 in0.0 mm 0.00 in0.0 mm 0.00 in0.0 mm
09:15 AM 59.2°F15.1°C 50.5°F10.3°C 73% 4.0 mph SW6.4 kmh SW 8.3 mph13.4 kmh 29.66 in1004.4 mb 0.00 in0.0 mm 0.00 in0.0 mm 0.00 in0.0 mm
09:09 AM 50.2°F10.1°C 45.2°F7.3°C 83% 1.8 mph SW2.9 kmh SW 2.2 mph3.5 kmh 29.64 in1003.7 mb 0.00 in0.0 mm 0.00 in0.0 mm 0.00 in0.0 mm
09:08 AM 51.3°F10.7°C 46.9°F8.3°C 85% 3.3 mph E5.3 kmh E 3.8 mph6.1 kmh 29.63 in1003.4 mb 0.00 in0.0 mm 0.00 in0.0 mm 0.00 in0.0 mm
09:04 AM 59.4°F15.2°C 49.6°F9.8°C 70% 6.0 mph WSW9.7 kmh WSW 8.3 mph13.4 kmh 29.66 in1004.4 mb 0.00 in0.0 mm 0.00 in0.0 mm 0.00 in0.0 mm
08:59 AM 59.2°F15.1°C 49.4°F9.7°C 70% 8.7 mph SSW14.0 kmh SSW 9.2 mph14.8 kmh 29.65 in1004.1 mb 0.00 in0.0 mm 0.00 in0.0 mm 0.00 in0.0 mm